Time;durP1;ratioP1;P1;durP2;ratioP2;P2;SDS_P1;SDS_P2;PMS_P1;PMS_P2;Temp;Humidity;BMP_temperature;BMP_pressure;BME280_temperature;BME280_humidity;BME280_pressure;Samples;Min_cycle;Max_cycle;Signal;HPM_P1;HPM_P2
2023/10/20 00:00:25;;;;;;;30.35;17.73;;;;;;;;;;5072885;28;20028;-61
2023/10/20 00:02:51;;;;;;;32.08;18.73;;;;;;;;;;5072746;28;20086;-63
2023/10/20 00:05:17;;;;;;;34.15;20.33;;;;;;;;;;5074350;28;20056;-64
2023/10/20 00:07:43;;;;;;;33.10;18.05;;;;;;;;;;5074242;28;20029;-63
2023/10/20 00:10:11;;;;;;;34.10;17.85;;;;;;;;;;5073418;28;20036;-63
2023/10/20 00:12:37;;;;;;;29.70;18.17;;;;;;;;;;5072859;28;20074;-63
2023/10/20 00:15:03;;;;;;;31.38;18.35;;;;;;;;;;5073280;28;20032;-64
2023/10/20 00:17:29;;;;;;;30.40;18.75;;;;;;;;;;5073064;28;20078;-61
2023/10/20 00:19:55;;;;;;;38.17;20.65;;;;;;;;;;5073169;28;20025;-64
2023/10/20 00:22:21;;;;;;;33.67;18.67;;;;;;;;;;5073050;28;20032;-63
2023/10/20 00:24:47;;;;;;;36.75;19.90;;;;;;;;;;5073612;28;20171;-63
2023/10/20 00:27:13;;;;;;;32.05;18.48;;;;;;;;;;5074187;28;20028;-64
2023/10/20 00:29:40;;;;;;;32.78;19.15;;;;;;;;;;5072530;28;20043;-60
2023/10/20 00:32:07;;;;;;;31.40;18.33;;;;;;;;;;5073450;28;20025;-63
2023/10/20 00:34:33;;;;;;;31.08;19.00;;;;;;;;;;5073524;28;20035;-64
2023/10/20 00:36:59;;;;;;;31.77;20.17;;;;;;;;;;5071846;28;20036;-63
2023/10/20 00:39:25;;;;;;;33.20;19.40;;;;;;;;;;5072906;28;20016;-63
2023/10/20 00:41:51;;;;;;;31.30;18.25;;;;;;;;;;5073351;28;20028;-62
2023/10/20 00:44:17;;;;;;;30.48;18.73;;;;;;;;;;5077512;28;20017;-65
2023/10/20 00:46:43;;;;;;;31.95;18.63;;;;;;;;;;5073398;28;20492;-63
2023/10/20 00:49:10;;;;;;;31.35;18.27;;;;;;;;;;5072966;28;20100;-63
2023/10/20 00:51:37;;;;;;;32.88;19.50;;;;;;;;;;5072512;28;20069;-60
2023/10/20 00:54:03;;;;;;;29.42;19.02;;;;;;;;;;5071629;28;20442;-62
2023/10/20 00:56:32;;;;;;;31.15;17.65;;;;;;;;;;5071605;28;20035;-64
2023/10/20 00:58:59;;;;;;;34.53;19.25;;;;;;;;;;5072071;28;20020;-63
2023/10/20 01:01:25;;;;;;;31.85;18.13;;;;;;;;;;5072527;28;20016;-63
2023/10/20 01:03:51;;;;;;;30.30;17.38;;;;;;;;;;5081967;28;20020;-64
2023/10/20 01:06:17;;;;;;;30.58;17.55;;;;;;;;;;5078340;28;20074;-64
2023/10/20 01:08:43;;;;;;;35.35;19.33;;;;;;;;;;5072178;28;20082;-64
2023/10/20 01:11:09;;;;;;;33.85;19.05;;;;;;;;;;5072863;28;20600;-64
2023/10/20 01:13:36;;;;;;;31.75;18.85;;;;;;;;;;5071938;28;20112;-63
2023/10/20 01:16:03;;;;;;;30.70;19.83;;;;;;;;;;5073790;28;20051;-64
2023/10/20 01:18:29;;;;;;;30.73;19.40;;;;;;;;;;5087441;28;20023;-64
2023/10/20 01:20:55;;;;;;;29.38;18.33;;;;;;;;;;5074821;28;20075;-64
2023/10/20 01:23:21;;;;;;;31.23;18.80;;;;;;;;;;5073582;28;20045;-64
2023/10/20 01:25:47;;;;;;;30.92;20.20;;;;;;;;;;5075552;28;20025;-60
2023/10/20 01:28:13;;;;;;;33.35;19.35;;;;;;;;;;5082567;28;20036;-60
2023/10/20 01:30:39;;;;;;;32.97;19.58;;;;;;;;;;5079166;28;20107;-55
2023/10/20 01:33:05;;;;;;;31.55;18.90;;;;;;;;;;5077881;28;20072;-62
2023/10/20 01:35:31;;;;;;;30.90;19.50;;;;;;;;;;5077691;28;20024;-64
2023/10/20 01:37:57;;;;;;;32.42;19.45;;;;;;;;;;5077244;28;20024;-63
2023/10/20 01:40:27;;;;;;;33.47;19.67;;;;;;;;;;5076038;28;20028;-64
2023/10/20 01:42:53;;;;;;;36.20;19.52;;;;;;;;;;5077575;28;20024;-63
2023/10/20 01:45:19;;;;;;;31.95;18.95;;;;;;;;;;5092063;28;20046;-63
2023/10/20 01:47:45;;;;;;;31.30;18.77;;;;;;;;;;5076520;28;20028;-62
2023/10/20 01:50:12;;;;;;;31.55;17.95;;;;;;;;;;5082506;28;20029;-62
2023/10/20 01:52:38;;;;;;;30.40;17.85;;;;;;;;;;5080017;28;20111;-60
2023/10/20 01:55:04;;;;;;;32.53;17.65;;;;;;;;;;5076341;28;20051;-62
2023/10/20 01:57:30;;;;;;;32.13;18.13;;;;;;;;;;5075679;28;20028;-61
2023/10/20 01:59:56;;;;;;;31.00;19.27;;;;;;;;;;5076134;28;20054;-63
2023/10/20 02:02:22;;;;;;;34.42;19.98;;;;;;;;;;5076357;28;20024;-63
2023/10/20 02:04:48;;;;;;;35.10;19.98;;;;;;;;;;5085114;28;20040;-63
2023/10/20 02:07:14;;;;;;;33.47;19.13;;;;;;;;;;5075529;28;20028;-62
2023/10/20 02:09:40;;;;;;;35.55;20.25;;;;;;;;;;5076271;28;20486;-63
2023/10/20 02:12:07;;;;;;;32.10;19.45;;;;;;;;;;5076944;28;20028;-63
2023/10/20 02:14:33;;;;;;;32.92;19.70;;;;;;;;;;5075118;28;20184;-62
2023/10/20 02:16:59;;;;;;;32.30;17.98;;;;;;;;;;5075843;28;20029;-61
2023/10/20 02:19:26;;;;;;;36.03;18.98;;;;;;;;;;5090640;28;20021;-63
2023/10/20 02:21:52;;;;;;;32.10;19.05;;;;;;;;;;5085368;28;20081;-64
2023/10/20 02:24:18;;;;;;;32.38;18.90;;;;;;;;;;5076405;28;20020;-62
2023/10/20 02:26:45;;;;;;;33.67;19.25;;;;;;;;;;5075814;28;20663;-62
2023/10/20 02:29:11;;;;;;;33.60;19.20;;;;;;;;;;5076802;28;20119;-63
2023/10/20 02:31:37;;;;;;;34.97;19.00;;;;;;;;;;5076451;28;20095;-64
2023/10/20 02:34:03;;;;;;;34.90;19.08;;;;;;;;;;5075571;28;20055;-62
2023/10/20 02:36:30;;;;;;;29.45;19.48;;;;;;;;;;5074223;28;20044;-63
2023/10/20 02:38:56;;;;;;;32.58;18.77;;;;;;;;;;5074041;28;20027;-63
2023/10/20 02:41:22;;;;;;;31.63;18.88;;;;;;;;;;5074988;28;20031;-63
2023/10/20 02:43:48;;;;;;;31.27;18.95;;;;;;;;;;5074785;28;20486;-62
2023/10/20 02:46:15;;;;;;;36.50;21.23;;;;;;;;;;5073769;28;20029;-63
2023/10/20 02:48:41;;;;;;;33.72;19.27;;;;;;;;;;5092554;28;20115;-62
2023/10/20 02:51:14;;;;;;;34.45;20.33;;;;;;;;;;5076154;28;20031;-63
2023/10/20 02:53:41;;;;;;;42.25;20.33;;;;;;;;;;5075511;28;20445;-64
2023/10/20 02:56:14;;;;;;;34.47;19.90;;;;;;;;;;5075114;28;20516;-63
2023/10/20 02:58:40;;;;;;;33.97;18.90;;;;;;;;;;5074961;28;20020;-61
2023/10/20 03:01:07;;;;;;;32.67;18.70;;;;;;;;;;5074365;28;20414;-62
2023/10/20 03:03:34;;;;;;;34.03;18.35;;;;;;;;;;5074734;28;20040;-62
2023/10/20 03:06:01;;;;;;;36.55;19.30;;;;;;;;;;5073155;28;20366;-62
2023/10/20 03:08:28;;;;;;;32.83;18.50;;;;;;;;;;5073107;28;20028;-63
2023/10/20 03:10:54;;;;;;;30.88;18.88;;;;;;;;;;5073828;28;20066;-62
2023/10/20 03:13:22;;;;;;;31.92;19.35;;;;;;;;;;5073854;28;20017;-62
2023/10/20 03:15:48;;;;;;;34.45;19.70;;;;;;;;;;5074011;28;20021;-63
2023/10/20 03:18:14;;;;;;;33.33;19.25;;;;;;;;;;5074442;28;20016;-64
2023/10/20 03:20:40;;;;;;;33.08;19.23;;;;;;;;;;5072667;28;20021;-60
2023/10/20 03:23:06;;;;;;;31.83;18.15;;;;;;;;;;5082038;28;20038;-62
2023/10/20 03:25:33;;;;;;;34.95;17.95;;;;;;;;;;5072371;28;20144;-58
2023/10/20 03:27:59;;;;;;;31.83;18.35;;;;;;;;;;5073870;28;20044;-62
2023/10/20 03:30:25;;;;;;;34.45;19.00;;;;;;;;;;5072503;28;20028;-62
2023/10/20 03:32:51;;;;;;;33.58;19.90;;;;;;;;;;5073260;28;20029;-61
2023/10/20 03:35:17;;;;;;;38.88;18.98;;;;;;;;;;5072013;28;20055;-63
2023/10/20 03:37:43;;;;;;;32.25;18.60;;;;;;;;;;5071742;28;20656;-61
2023/10/20 03:40:16;;;;;;;34.13;19.38;;;;;;;;;;5075976;28;20024;-60
2023/10/20 03:42:43;;;;;;;34.13;19.95;;;;;;;;;;5076617;28;20418;-62
2023/10/20 03:45:10;;;;;;;34.25;18.70;;;;;;;;;;5073023;28;20017;-63
2023/10/20 03:47:38;;;;;;;34.80;20.00;;;;;;;;;;5080265;28;20111;-61
2023/10/20 03:50:15;;;;;;;31.60;18.40;;;;;;;;;;5087454;28;20047;-63
2023/10/20 03:52:42;;;;;;;36.38;20.45;;;;;;;;;;5073087;28;20052;-63
2023/10/20 03:55:08;;;;;;;33.28;18.58;;;;;;;;;;5081115;28;20031;-62
2023/10/20 03:57:35;;;;;;;32.28;18.85;;;;;;;;;;5071693;28;20054;-61
2023/10/20 04:00:15;;;;;;;35.97;19.65;;;;;;;;;;5071437;28;20033;-63
2023/10/20 04:02:41;;;;;;;33.72;19.58;;;;;;;;;;5080569;28;20024;-64
2023/10/20 04:05:07;;;;;;;34.70;18.00;;;;;;;;;;5071078;28;20027;-62
2023/10/20 04:07:33;;;;;;;31.73;18.73;;;;;;;;;;5072493;28;20058;-62
2023/10/20 04:09:59;;;;;;;33.00;19.17;;;;;;;;;;5072054;28;20105;-61
2023/10/20 04:12:27;;;;;;;32.88;19.65;;;;;;;;;;5071676;28;20051;-63
2023/10/20 04:14:57;;;;;;;33.85;18.38;;;;;;;;;;5090109;28;20024;-62
2023/10/20 04:17:23;;;;;;;34.47;19.98;;;;;;;;;;5072584;28;20020;-62
2023/10/20 04:19:49;;;;;;;36.05;20.58;;;;;;;;;;5084015;28;20094;-64
2023/10/20 04:22:16;;;;;;;35.20;18.95;;;;;;;;;;5078857;28;20021;-63
2023/10/20 04:24:44;;;;;;;37.67;21.10;;;;;;;;;;5072698;28;20088;-64
2023/10/20 04:27:21;;;;;;;34.65;19.15;;;;;;;;;;5073907;28;20020;-62
2023/10/20 04:41:51;;;;;;;31.42;19.15;;;;;;;;;;5072759;28;20025;-62
2023/10/20 04:43:42;;;;;;;27.42;17.40;;;;;;;;;;5071709;28;20633;-60
2023/10/20 04:49:28;;;;;;;31.60;17.10;;;;;;;;;;5072961;28;20182;-65
2023/10/20 04:52:27;;;;;;;30.45;17.20;;;;;;;;;;5074704;28;20027;-65
2023/10/20 05:07:52;;;;;;;28.33;15.80;;;;;;;;;;5071180;28;20024;-60
2023/10/20 05:10:22;;;;;;;28.63;15.88;;;;;;;;;;5070430;28;20111;-65
2023/10/20 05:12:48;;;;;;;30.90;15.82;;;;;;;;;;5070397;28;20028;-62
2023/10/20 05:15:14;;;;;;;25.35;15.15;;;;;;;;;;5068966;28;20498;-63
2023/10/20 05:17:41;;;;;;;26.13;16.38;;;;;;;;;;5069773;28;20028;-61
2023/10/20 05:20:14;;;;;;;25.60;14.57;;;;;;;;;;5069320;28;20028;-64
2023/10/20 05:22:42;;;;;;;26.52;14.65;;;;;;;;;;5078574;28;20020;-63
2023/10/20 05:25:11;;;;;;;24.10;14.60;;;;;;;;;;5072221;28;20091;-62
2023/10/20 05:27:37;;;;;;;;;;;;;;;;;;5072074;28;20023;-64
2023/10/20 05:30:03;;;;;;;22.48;13.50;;;;;;;;;;5070889;28;20316;-61
2023/10/20 05:32:31;;;;;;;26.42;14.30;;;;;;;;;;5070200;28;20022;-64
2023/10/20 05:35:04;;;;;;;24.80;14.48;;;;;;;;;;5070909;28;20021;-63
2023/10/20 05:37:33;;;;;;;24.10;13.32;;;;;;;;;;5070701;28;20553;-61
2023/10/20 05:39:59;;;;;;;23.33;13.77;;;;;;;;;;5071559;28;20032;-63
2023/10/20 05:42:25;;;;;;;26.58;14.35;;;;;;;;;;5070048;28;20016;-62
2023/10/20 05:45:09;;;;;;;23.75;13.80;;;;;;;;;;5070735;28;20055;-60
2023/10/20 05:47:35;;;;;;;23.52;13.73;;;;;;;;;;5086874;28;20031;-63
2023/10/20 05:50:02;;;;;;;25.75;14.02;;;;;;;;;;5071808;28;20115;-61
2023/10/20 05:52:28;;;;;;;24.45;14.00;;;;;;;;;;5070674;28;20184;-60
2023/10/20 05:54:55;;;;;;;22.15;12.98;;;;;;;;;;5071593;28;20033;-59
2023/10/20 05:57:22;;;;;;;23.50;13.90;;;;;;;;;;5071190;28;20024;-63
2023/10/20 05:59:48;;;;;;;22.05;13.57;;;;;;;;;;5071505;28;20021;-64
2023/10/20 06:02:14;;;;;;;24.77;12.85;;;;;;;;;;5071231;28;20021;-64
2023/10/20 06:04:40;;;;;;;23.58;13.70;;;;;;;;;;5072228;28;20021;-61
2023/10/20 06:07:07;;;;;;;21.60;13.10;;;;;;;;;;5071682;28;20051;-63
2023/10/20 06:09:33;;;;;;;20.70;12.43;;;;;;;;;;5079003;28;20486;-62
2023/10/20 06:11:59;;;;;;;23.25;13.00;;;;;;;;;;5084819;28;20048;-62
2023/10/20 06:14:25;;;;;;;21.25;12.80;;;;;;;;;;5075520;28;20028;-63
2023/10/20 06:16:51;;;;;;;19.85;12.18;;;;;;;;;;5082597;28;20047;-63
2023/10/20 06:19:17;;;;;;;24.80;14.30;;;;;;;;;;5080417;28;20398;-61
2023/10/20 06:21:43;;;;;;;23.15;13.05;;;;;;;;;;5074552;28;20259;-59
2023/10/20 06:24:09;;;;;;;21.55;12.13;;;;;;;;;;5074933;28;20444;-58
2023/10/20 06:26:36;;;;;;;20.48;12.07;;;;;;;;;;5073248;28;20093;-63
2023/10/20 06:29:02;;;;;;;22.98;12.40;;;;;;;;;;5079214;28;20020;-57
2023/10/20 06:31:41;;;;;;;20.92;11.95;;;;;;;;;;5095738;28;20084;-63
2023/10/20 06:34:27;;;;;;;22.27;12.25;;;;;;;;;;5091450;28;20028;-65
2023/10/20 06:39:45;;;;;;;24.08;12.65;;;;;;;;;;5053880;28;20021;-64
2023/10/20 06:42:11;;;;;;;24.02;11.82;;;;;;;;;;5073286;28;20095;-64
2023/10/20 06:44:38;;;;;;;21.02;11.90;;;;;;;;;;5082964;28;20474;-60
2023/10/20 06:47:04;;;;;;;23.35;12.88;;;;;;;;;;5078165;28;20078;-64
2023/10/20 06:49:32;;;;;;;20.17;12.02;;;;;;;;;;5080540;28;20050;-61
2023/10/20 06:52:03;;;;;;;23.27;12.52;;;;;;;;;;5082749;28;20071;-62
2023/10/20 06:54:29;;;;;;;20.95;12.70;;;;;;;;;;5074427;28;20560;-61
2023/10/20 06:56:55;;;;;;;20.25;13.02;;;;;;;;;;5073476;28;20573;-62
2023/10/20 06:59:21;;;;;;;20.90;11.70;;;;;;;;;;5074109;28;20036;-64
2023/10/20 07:01:47;;;;;;;21.88;11.50;;;;;;;;;;5075493;28;20157;-62
2023/10/20 07:04:13;;;;;;;21.52;11.57;;;;;;;;;;5077664;28;20017;-64
2023/10/20 07:06:45;;;;;;;19.77;11.45;;;;;;;;;;5074151;28;20028;-62
2023/10/20 07:09:11;;;;;;;20.63;10.88;;;;;;;;;;5088442;28;20537;-64
2023/10/20 07:11:38;;;;;;;19.77;10.77;;;;;;;;;;5087030;28;20039;-64
2023/10/20 07:14:07;;;;;;;20.00;11.02;;;;;;;;;;5093697;28;20061;-64
2023/10/20 07:16:33;;;;;;;19.67;10.68;;;;;;;;;;5095579;28;20052;-62
2023/10/20 07:19:00;;;;;;;18.77;11.20;;;;;;;;;;5095232;28;20017;-63
2023/10/20 07:21:26;;;;;;;17.85;9.90;;;;;;;;;;5095172;28;20027;-63
2023/10/20 07:23:53;;;;;;;18.65;9.57;;;;;;;;;;5090260;28;20512;-62
2023/10/20 07:26:19;;;;;;;17.80;10.35;;;;;;;;;;5090601;28;20108;-52
2023/10/20 07:28:45;;;;;;;18.77;11.20;;;;;;;;;;5090261;28;20485;-54
2023/10/20 07:31:15;;;;;;;16.73;10.02;;;;;;;;;;5085888;28;20067;-48
2023/10/20 07:33:41;;;;;;;20.58;10.00;;;;;;;;;;5068707;28;20036;-51
2023/10/20 07:36:08;;;;;;;18.83;9.93;;;;;;;;;;5069825;28;20082;-49
2023/10/20 07:38:34;;;;;;;19.42;10.27;;;;;;;;;;5069881;28;20046;-47
2023/10/20 07:41:11;;;;;;;19.50;10.07;;;;;;;;;;5069345;28;20020;-53
2023/10/20 07:43:37;;;;;;;20.00;10.85;;;;;;;;;;5078200;28;20040;-52
2023/10/20 07:46:03;;;;;;;18.13;9.88;;;;;;;;;;5069201;28;20085;-56
2023/10/20 07:48:33;;;;;;;18.85;11.05;;;;;;;;;;5069740;28;20024;-50
2023/10/20 07:50:59;;;;;;;19.73;10.48;;;;;;;;;;5069276;28;20375;-56
2023/10/20 07:53:26;;;;;;;18.92;11.10;;;;;;;;;;5069557;28;20042;-53
2023/10/20 07:55:52;;;;;;;20.35;11.20;;;;;;;;;;5069852;28;20047;-53
2023/10/20 07:58:18;;;;;;;17.73;10.50;;;;;;;;;;5069539;28;20031;-52
2023/10/20 08:00:44;;;;;;;19.20;10.70;;;;;;;;;;5067981;28;20564;-49
2023/10/20 08:03:11;;;;;;;18.80;10.00;;;;;;;;;;5069575;28;20020;-51
2023/10/20 08:05:37;;;;;;;17.88;10.43;;;;;;;;;;5076543;28;20099;-50
2023/10/20 08:08:04;;;;;;;18.52;10.65;;;;;;;;;;5072932;28;20078;-52
2023/10/20 08:10:30;;;;;;;17.52;10.23;;;;;;;;;;5084214;28;20024;-51
2023/10/20 08:12:56;;;;;;;21.60;10.25;;;;;;;;;;5070369;28;20032;-57
2023/10/20 08:15:23;;;;;;;17.83;10.20;;;;;;;;;;5069578;28;20034;-57
2023/10/20 08:17:51;;;;;;;19.17;11.07;;;;;;;;;;5069758;28;20410;-55
2023/10/20 08:20:17;;;;;;;16.92;10.05;;;;;;;;;;5069535;28;20297;-53
2023/10/20 08:22:43;;;;;;;18.95;9.85;;;;;;;;;;5070225;28;20017;-56
2023/10/20 08:25:09;;;;;;;19.10;11.13;;;;;;;;;;5070358;28;20035;-53
2023/10/20 08:27:36;;;;;;;18.20;10.38;;;;;;;;;;5071463;28;20036;-51
2023/10/20 08:30:02;;;;;;;19.33;9.77;;;;;;;;;;5085961;28;20587;-51
2023/10/20 08:32:29;;;;;;;21.60;10.27;;;;;;;;;;5083172;28;20538;-52
2023/10/20 08:34:55;;;;;;;20.10;10.50;;;;;;;;;;5087114;28;20116;-56
2023/10/20 08:37:21;;;;;;;16.30;9.48;;;;;;;;;;5075718;28;20031;-57
2023/10/20 08:39:48;;;;;;;16.15;9.80;;;;;;;;;;5080264;28;20039;-55
2023/10/20 08:42:16;;;;;;;17.27;9.60;;;;;;;;;;5069787;28;20517;-55
2023/10/20 08:44:43;;;;;;;16.70;9.25;;;;;;;;;;5069628;28;20028;-57
2023/10/20 08:47:10;;;;;;;16.90;9.85;;;;;;;;;;5069523;28;20067;-54
2023/10/20 08:49:37;;;;;;;17.53;9.07;;;;;;;;;;5069327;28;20055;-57
2023/10/20 08:52:04;;;;;;;16.02;9.10;;;;;;;;;;5069332;28;20065;-53
2023/10/20 08:54:30;;;;;;;14.98;8.60;;;;;;;;;;5069466;28;20380;-56
2023/10/20 08:56:57;;;;;;;15.57;8.50;;;;;;;;;;5069208;28;20039;-55
2023/10/20 08:59:23;;;;;;;14.77;8.90;;;;;;;;;;5069578;28;20009;-57
2023/10/20 09:01:51;;;;;;;16.15;9.15;;;;;;;;;;5068709;28;20048;-56
2023/10/20 09:04:25;;;;;;;15.15;8.40;;;;;;;;;;5069454;28;20023;-54
2023/10/20 09:06:52;;;;;;;15.70;9.07;;;;;;;;;;5069270;28;20453;-56
2023/10/20 09:09:19;;;;;;;15.70;8.38;;;;;;;;;;5078705;28;20028;-57
2023/10/20 09:11:45;;;;;;;16.10;8.57;;;;;;;;;;5076981;28;20616;-55
2023/10/20 09:14:14;;;;;;;15.82;8.25;;;;;;;;;;5069604;28;20029;-57
2023/10/20 09:16:41;;;;;;;14.43;8.18;;;;;;;;;;5069422;28;20402;-54
2023/10/20 09:19:11;;;;;;;15.45;8.48;;;;;;;;;;5081168;28;20043;-54
2023/10/20 09:21:39;;;;;;;15.50;7.95;;;;;;;;;;5089535;28;20039;-56
2023/10/20 09:24:05;;;;;;;;;;;;;;;;;;5089798;28;20103;-57
2023/10/20 09:26:33;;;;;;;15.35;7.95;;;;;;;;;;5089553;28;19962;-56
2023/10/20 09:28:59;;;;;;;15.35;8.05;;;;;;;;;;5089458;28;20045;-52
2023/10/20 09:31:26;;;;;;;14.55;8.15;;;;;;;;;;5089238;28;20020;-57
2023/10/20 09:33:53;;;;;;;14.50;8.05;;;;;;;;;;5070865;28;20028;-57
2023/10/20 09:36:19;;;;;;;14.25;7.80;;;;;;;;;;5068600;28;20025;-58
2023/10/20 09:38:49;;;;;;;15.75;8.23;;;;;;;;;;5069264;28;20544;-55
2023/10/20 09:41:17;;;;;;;15.02;8.18;;;;;;;;;;5073596;28;20351;-54
2023/10/20 09:43:47;;;;;;;14.80;7.68;;;;;;;;;;5072169;28;20015;-54
2023/10/20 09:46:19;;;;;;;14.95;8.50;;;;;;;;;;5071947;28;20035;-54
2023/10/20 09:48:46;;;;;;;14.85;8.05;;;;;;;;;;5081532;28;20034;-55
2023/10/20 09:51:15;;;;;;;14.20;7.80;;;;;;;;;;5080006;28;20386;-54
2023/10/20 09:53:41;;;;;;;14.05;8.07;;;;;;;;;;5072933;28;20301;-55
2023/10/20 09:56:07;;;;;;;14.30;8.20;;;;;;;;;;5084578;28;20055;-55
2023/10/20 09:58:34;;;;;;;15.05;8.02;;;;;;;;;;5092762;28;20384;-54
2023/10/20 10:01:00;;;;;;;14.95;8.20;;;;;;;;;;5092787;28;20040;-54
2023/10/20 10:03:29;;;;;;;15.32;7.93;;;;;;;;;;5092834;28;20469;-55
2023/10/20 10:05:56;;;;;;;14.07;7.63;;;;;;;;;;5092587;28;20016;-54
2023/10/20 10:08:22;;;;;;;14.25;7.93;;;;;;;;;;5086832;28;20375;-55
2023/10/20 10:10:49;;;;;;;16.75;7.30;;;;;;;;;;5081738;28;20055;-54
2023/10/20 10:13:16;;;;;;;14.57;7.47;;;;;;;;;;5072443;28;20032;-56
2023/10/20 10:15:43;;;;;;;15.20;7.63;;;;;;;;;;5072131;28;20020;-58
2023/10/20 10:18:10;;;;;;;14.65;7.40;;;;;;;;;;5072148;28;20524;-56
2023/10/20 10:20:45;;;;;;;13.60;7.28;;;;;;;;;;5071535;28;20043;-56
2023/10/20 10:23:14;;;;;;;15.23;7.32;;;;;;;;;;5084651;28;20024;-56
2023/10/20 10:25:44;;;;;;;14.30;7.22;;;;;;;;;;5092222;28;20016;-56
2023/10/20 10:28:14;;;;;;;14.55;7.47;;;;;;;;;;5092455;28;20012;-53
2023/10/20 10:30:40;;;;;;;14.05;7.35;;;;;;;;;;5090754;28;20560;-58
2023/10/20 10:33:10;;;;;;;14.88;7.50;;;;;;;;;;5080408;28;20059;-56
2023/10/20 10:35:39;;;;;;;14.63;7.65;;;;;;;;;;5071838;28;20108;-53
2023/10/20 10:38:08;;;;;;;15.00;7.65;;;;;;;;;;5071843;28;20028;-56
2023/10/20 10:40:34;;;;;;;17.25;8.20;;;;;;;;;;5072076;28;20020;-54
2023/10/20 10:43:00;;;;;;;18.30;8.30;;;;;;;;;;5072064;28;20024;-56
2023/10/20 10:45:36;;;;;;;15.75;8.10;;;;;;;;;;5071556;28;20013;-53
2023/10/20 10:48:12;;;;;;;16.80;8.35;;;;;;;;;;5074432;28;20600;-58
2023/10/20 10:50:38;;;;;;;16.92;8.43;;;;;;;;;;5076133;28;20506;-58
2023/10/20 10:53:04;;;;;;;15.15;8.52;;;;;;;;;;5057850;22;20395;-51
2023/10/20 10:55:31;;;;;;;17.70;9.05;;;;;;;;;;5031838;28;20022;-53
2023/10/20 10:58:00;;;;;;;14.52;8.20;;;;;;;;;;5032577;28;20106;-55
2023/10/20 11:00:27;;;;;;;15.65;8.57;;;;;;;;;;5032050;28;20117;-53
2023/10/20 11:02:53;;;;;;;14.40;8.27;;;;;;;;;;5031743;28;20048;-52
2023/10/20 11:05:20;;;;;;;15.05;9.05;;;;;;;;;;5031919;28;20018;-53
2023/10/20 11:07:59;;;;;;;15.35;9.20;;;;;;;;;;5032489;28;20418;-55
2023/10/20 11:10:28;;;;;;;15.02;9.43;;;;;;;;;;5031534;28;20071;-50
2023/10/20 11:12:57;;;;;;;15.38;9.55;;;;;;;;;;5031558;28;20060;-54
2023/10/20 11:15:28;;;;;;;14.85;10.07;;;;;;;;;;5029848;28;20049;-51
2023/10/20 11:17:58;;;;;;;15.10;10.63;;;;;;;;;;5031235;28;20039;-54
2023/10/20 11:20:24;;;;;;;14.70;10.20;;;;;;;;;;5031477;28;20641;-47
2023/10/20 11:22:54;;;;;;;16.30;10.80;;;;;;;;;;5029621;28;20095;-52
2023/10/20 11:25:20;;;;;;;15.80;11.15;;;;;;;;;;5030198;28;20048;-50
2023/10/20 11:27:53;;;;;;;15.68;10.55;;;;;;;;;;5031417;28;20057;-53
2023/10/20 11:30:23;;;;;;;15.05;10.10;;;;;;;;;;5030207;28;20121;-53
2023/10/20 11:32:49;;;;;;;14.70;9.95;;;;;;;;;;5031234;28;20079;-49
2023/10/20 11:35:15;;;;;;;15.52;10.07;;;;;;;;;;5032031;28;20440;-50
2023/10/20 11:37:42;;;;;;;15.20;10.50;;;;;;;;;;5031702;28;20502;-52
2023/10/20 11:40:08;;;;;;;15.05;10.35;;;;;;;;;;5029889;28;20152;-51
2023/10/20 11:42:34;;;;;;;15.57;10.68;;;;;;;;;;5030777;28;20029;-50
2023/10/20 11:45:01;;;;;;;14.80;10.15;;;;;;;;;;5030036;28;20514;-55
2023/10/20 11:47:27;;;;;;;15.25;10.30;;;;;;;;;;5031485;28;20498;-56
2023/10/20 11:49:54;;;;;;;14.50;9.63;;;;;;;;;;5029652;28;20076;-55
2023/10/20 11:52:22;;;;;;;14.90;10.07;;;;;;;;;;5031027;28;20029;-52
2023/10/20 11:54:49;;;;;;;15.20;10.48;;;;;;;;;;5030101;28;20495;-54
2023/10/20 11:57:17;;;;;;;15.15;10.40;;;;;;;;;;5030846;28;20040;-50
2023/10/20 11:59:43;;;;;;;15.25;10.25;;;;;;;;;;5030736;28;20539;-49
2023/10/20 12:02:09;;;;;;;15.25;10.20;;;;;;;;;;5030834;28;20036;-47
2023/10/20 12:04:35;;;;;;;14.63;9.63;;;;;;;;;;5029563;28;20471;-50
2023/10/20 12:07:02;;;;;;;15.27;9.63;;;;;;;;;;5028762;28;20025;-52
2023/10/20 12:09:28;;;;;;;14.50;9.57;;;;;;;;;;5028440;28;20110;-53
2023/10/20 12:11:54;;;;;;;15.55;9.95;;;;;;;;;;5028801;28;20041;-52
2023/10/20 12:14:20;;;;;;;14.85;10.05;;;;;;;;;;5028794;28;20052;-52
2023/10/20 12:16:46;;;;;;;14.80;9.88;;;;;;;;;;5028795;28;20030;-50
2023/10/20 12:19:13;;;;;;;14.40;9.73;;;;;;;;;;5029685;28;20044;-50
2023/10/20 12:21:39;;;;;;;15.10;9.98;;;;;;;;;;5029908;28;20501;-49
2023/10/20 12:24:05;;;;;;;14.85;10.00;;;;;;;;;;5029648;28;20029;-52
2023/10/20 12:26:31;;;;;;;14.60;9.90;;;;;;;;;;5029938;28;20072;-56
2023/10/20 12:28:57;;;;;;;14.95;9.68;;;;;;;;;;5030698;28;20064;-53
2023/10/20 12:31:28;;;;;;;17.42;10.93;;;;;;;;;;5030520;28;20017;-53
2023/10/20 12:33:54;;;;;;;15.85;9.85;;;;;;;;;;5030671;28;20498;-53
2023/10/20 12:36:21;;;;;;;15.45;9.70;;;;;;;;;;5030523;28;20041;-56
2023/10/20 12:38:47;;;;;;;17.55;10.73;;;;;;;;;;5030576;28;20376;-58
2023/10/20 12:41:13;;;;;;;15.73;10.13;;;;;;;;;;5030467;28;20060;-52
2023/10/20 12:43:40;;;;;;;14.55;9.93;;;;;;;;;;5028992;28;20123;-52
2023/10/20 12:46:06;;;;;;;14.90;9.95;;;;;;;;;;5030110;28;20021;-50
2023/10/20 12:48:33;;;;;;;15.52;10.52;;;;;;;;;;5030129;28;20038;-52
2023/10/20 12:50:59;;;;;;;15.00;9.80;;;;;;;;;;5029828;28;20543;-53
2023/10/20 12:53:25;;;;;;;15.77;9.98;;;;;;;;;;5029815;28;20372;-53
2023/10/20 12:55:54;;;;;;;14.80;10.23;;;;;;;;;;5030014;28;20025;-53
2023/10/20 12:58:20;;;;;;;14.50;10.02;;;;;;;;;;5028823;28;20032;-52
2023/10/20 13:00:46;;;;;;;16.25;10.40;;;;;;;;;;5029683;28;20072;-51
2023/10/20 13:03:12;;;;;;;14.88;9.90;;;;;;;;;;5029949;28;20096;-55
2023/10/20 13:05:40;;;;;;;14.90;10.13;;;;;;;;;;5029739;28;20100;-55
2023/10/20 13:08:06;;;;;;;14.77;9.35;;;;;;;;;;5030162;28;20026;-49
2023/10/20 13:10:32;;;;;;;15.23;9.63;;;;;;;;;;5029811;28;20507;-51
2023/10/20 13:13:00;;;;;;;14.70;9.65;;;;;;;;;;5028404;28;20022;-53
2023/10/20 13:15:28;;;;;;;15.10;10.00;;;;;;;;;;5028389;28;20522;-51
2023/10/20 13:17:55;;;;;;;15.23;10.00;;;;;;;;;;5029847;28;20518;-51
2023/10/20 13:20:21;;;;;;;15.20;10.00;;;;;;;;;;5035246;28;20021;-53
2023/10/20 13:22:47;;;;;;;15.35;10.23;;;;;;;;;;5036582;28;20025;-54
2023/10/20 13:25:13;;;;;;;15.60;10.57;;;;;;;;;;5036899;28;20261;-51
2023/10/20 13:27:40;;;;;;;14.65;9.95;;;;;;;;;;5036474;28;20079;-50
2023/10/20 13:30:07;;;;;;;15.38;10.52;;;;;;;;;;5036285;28;20029;-54
2023/10/20 13:32:33;;;;;;;15.77;10.18;;;;;;;;;;5033790;28;20488;-52
2023/10/20 13:34:59;;;;;;;16.58;10.25;;;;;;;;;;5023544;28;20429;-55
2023/10/20 13:37:25;;;;;;;15.68;10.50;;;;;;;;;;5031966;28;20026;-54
2023/10/20 13:39:53;;;;;;;15.13;10.00;;;;;;;;;;5031452;28;20502;-57
2023/10/20 13:42:19;;;;;;;15.70;10.32;;;;;;;;;;5035958;28;20017;-54
2023/10/20 13:44:45;;;;;;;16.15;10.50;;;;;;;;;;5035682;28;20100;-52
2023/10/20 13:47:11;;;;;;;15.95;10.25;;;;;;;;;;5035973;28;20448;-50
2023/10/20 13:49:37;;;;;;;15.50;10.07;;;;;;;;;;5035657;28;20021;-51
2023/10/20 13:52:04;;;;;;;15.15;10.32;;;;;;;;;;5035421;28;20752;-51
2023/10/20 13:54:31;;;;;;;15.40;10.30;;;;;;;;;;5032601;28;20021;-50
2023/10/20 13:56:57;;;;;;;15.55;10.57;;;;;;;;;;5030992;28;20174;-55
2023/10/20 13:59:23;;;;;;;15.18;10.13;;;;;;;;;;5035661;28;20594;-55
2023/10/20 14:01:49;;;;;;;15.00;10.18;;;;;;;;;;5033319;28;20030;-51
2023/10/20 14:04:15;;;;;;;17.90;11.27;;;;;;;;;;5024811;28;20048;-53
2023/10/20 14:06:41;;;;;;;15.32;10.48;;;;;;;;;;5035395;28;20126;-54
2023/10/20 14:09:08;;;;;;;16.02;10.73;;;;;;;;;;5035323;28;20112;-53
2023/10/20 14:11:34;;;;;;;15.60;10.50;;;;;;;;;;5035778;28;20484;-51
2023/10/20 14:14:00;;;;;;;17.25;11.10;;;;;;;;;;5035676;28;20029;-52
2023/10/20 14:16:26;;;;;;;17.10;11.15;;;;;;;;;;5035621;28;20066;-52
2023/10/20 14:18:52;;;;;;;16.90;11.02;;;;;;;;;;5035578;28;20445;-55
2023/10/20 14:21:18;;;;;;;15.52;10.73;;;;;;;;;;5035095;28;20113;-53
2023/10/20 14:23:44;;;;;;;17.40;11.55;;;;;;;;;;5035286;28;20718;-54
2023/10/20 14:26:10;;;;;;;16.98;10.77;;;;;;;;;;5033553;28;20013;-56
2023/10/20 14:28:36;;;;;;;15.90;11.10;;;;;;;;;;4684086;28;9999818;-56
2023/10/20 14:31:03;;;;;;;15.85;10.90;;;;;;;;;;5026700;28;20052;-53
2023/10/20 14:33:29;;;;;;;16.23;10.75;;;;;;;;;;5027346;28;20075;-48
2023/10/20 14:35:58;;;;;;;16.70;11.07;;;;;;;;;;5027441;28;20025;-50
2023/10/20 14:38:25;;;;;;;17.42;12.10;;;;;;;;;;5022567;28;20021;-54
2023/10/20 14:41:07;;;;;;;16.65;11.88;;;;;;;;;;5028079;28;20067;-47
2023/10/20 14:43:34;;;;;;;17.08;11.98;;;;;;;;;;5028652;28;20492;-53
2023/10/20 14:46:01;;;;;;;17.10;11.75;;;;;;;;;;5029013;28;20025;-55
2023/10/20 14:48:27;;;;;;;17.85;11.73;;;;;;;;;;5029930;28;20415;-54
2023/10/20 14:50:54;;;;;;;17.30;11.85;;;;;;;;;;5029018;28;20076;-47